sensor_id;sensor_type;location;lat;lon;timestamp;temperature;humidity
19263;DHT22;9765;52.354;20.884;2022-10-31T06:32:18;6.30;99.90
19263;DHT22;9765;52.354;20.884;2022-10-31T06:34:45;6.30;99.90
19263;DHT22;9765;52.354;20.884;2022-10-31T06:37:15;6.40;99.90
19263;DHT22;9765;52.354;20.884;2022-10-31T06:39:42;6.50;99.90
19263;DHT22;9765;52.354;20.884;2022-10-31T06:42:08;6.60;99.90
19263;DHT22;9765;52.354;20.884;2022-10-31T06:44:35;6.70;99.90
19263;DHT22;9765;52.354;20.884;2022-10-31T06:47:02;6.90;99.90
19263;DHT22;9765;52.354;20.884;2022-10-31T06:49:30;7.00;99.90
19263;DHT22;9765;52.354;20.884;2022-10-31T06:51:56;7.20;99.90
19263;DHT22;9765;52.354;20.884;2022-10-31T06:54:23;7.30;99.90
19263;DHT22;9765;52.354;20.884;2022-10-31T06:56:49;7.40;99.90
19263;DHT22;9765;52.354;20.884;2022-10-31T06:59:16;7.50;99.90
19263;DHT22;9765;52.354;20.884;2022-10-31T07:01:43;7.60;99.90
19263;DHT22;9765;52.354;20.884;2022-10-31T07:04:10;7.80;99.90
19263;DHT22;9765;52.354;20.884;2022-10-31T07:06:38;7.90;99.90
19263;DHT22;9765;52.354;20.884;2022-10-31T07:09:05;8.10;99.90
19263;DHT22;9765;52.354;20.884;2022-10-31T07:11:32;8.20;99.90
19263;DHT22;9765;52.354;20.884;2022-10-31T07:13:58;8.40;99.90
19263;DHT22;9765;52.354;20.884;2022-10-31T07:16:25;8.50;99.90
19263;DHT22;9765;52.354;20.884;2022-10-31T07:18:52;8.70;99.90
19263;DHT22;9765;52.354;20.884;2022-10-31T07:21:19;8.80;99.90
19263;DHT22;9765;52.354;20.884;2022-10-31T07:23:48;8.90;99.90
19263;DHT22;9765;52.354;20.884;2022-10-31T07:26:15;9.00;99.90
19263;DHT22;9765;52.354;20.884;2022-10-31T07:28:41;9.20;99.90
19263;DHT22;9765;52.354;20.884;2022-10-31T07:31:08;9.20;99.90
19263;DHT22;9765;52.354;20.884;2022-10-31T07:33:35;9.30;99.90
19263;DHT22;9765;52.354;20.884;2022-10-31T07:36:01;9.30;99.90
19263;DHT22;9765;52.354;20.884;2022-10-31T07:38:28;9.50;99.90
19263;DHT22;9765;52.354;20.884;2022-10-31T07:40:56;9.60;99.90
19263;DHT22;9765;52.354;20.884;2022-10-31T07:43:23;9.60;99.90
19263;DHT22;9765;52.354;20.884;2022-10-31T07:45:50;9.70;99.90
19263;DHT22;9765;52.354;20.884;2022-10-31T07:48:17;9.80;99.90
19263;DHT22;9765;52.354;20.884;2022-10-31T07:50:44;9.90;99.90
19263;DHT22;9765;52.354;20.884;2022-10-31T07:53:12;10.10;99.90
19263;DHT22;9765;52.354;20.884;2022-10-31T07:55:39;10.20;99.90
19263;DHT22;9765;52.354;20.884;2022-10-31T07:58:09;10.30;99.90
19263;DHT22;9765;52.354;20.884;2022-10-31T08:00:37;10.30;99.90
19263;DHT22;9765;52.354;20.884;2022-10-31T08:03:05;10.40;99.90
19263;DHT22;9765;52.354;20.884;2022-10-31T08:05:33;10.60;99.90
19263;DHT22;9765;52.354;20.884;2022-10-31T08:08:00;10.70;99.90
19263;DHT22;9765;52.354;20.884;2022-10-31T08:10:27;10.90;99.90
19263;DHT22;9765;52.354;20.884;2022-10-31T08:12:57;10.80;99.90
19263;DHT22;9765;52.354;20.884;2022-10-31T08:15:26;10.80;99.90
19263;DHT22;9765;52.354;20.884;2022-10-31T08:17:53;10.80;99.90
19263;DHT22;9765;52.354;20.884;2022-10-31T08:20:20;11.00;99.90
19263;DHT22;9765;52.354;20.884;2022-10-31T08:22:54;11.20;99.90
19263;DHT22;9765;52.354;20.884;2022-10-31T08:25:21;11.50;99.90
19263;DHT22;9765;52.354;20.884;2022-10-31T08:27:49;11.50;99.90
19263;DHT22;9765;52.354;20.884;2022-10-31T08:30:17;11.70;99.90
19263;DHT22;9765;52.354;20.884;2022-10-31T08:32:45;11.80;99.90
19263;DHT22;9765;52.354;20.884;2022-10-31T08:35:11;11.80;99.90
19263;DHT22;9765;52.354;20.884;2022-10-31T08:37:38;11.80;99.90
19263;DHT22;9765;52.354;20.884;2022-10-31T08:40:06;12.30;99.90
19263;DHT22;9765;52.354;20.884;2022-10-31T08:42:32;12.70;99.90
19263;DHT22;9765;52.354;20.884;2022-10-31T08:44:59;12.90;99.90
19263;DHT22;9765;52.354;20.884;2022-10-31T08:47:26;13.10;99.90
19263;DHT22;9765;52.354;20.884;2022-10-31T08:49:54;13.20;99.90
19263;DHT22;9765;52.354;20.884;2022-10-31T08:52:23;13.00;99.90
19263;DHT22;9765;52.354;20.884;2022-10-31T08:54:50;13.10;99.90
19263;DHT22;9765;52.354;20.884;2022-10-31T08:57:16;13.10;99.90
19263;DHT22;9765;52.354;20.884;2022-10-31T08:59:43;13.20;99.90
19263;DHT22;9765;52.354;20.884;2022-10-31T09:02:10;13.10;99.90
19263;DHT22;9765;52.354;20.884;2022-10-31T09:04:36;13.00;99.90
19263;DHT22;9765;52.354;20.884;2022-10-31T09:07:04;13.10;99.90
19263;DHT22;9765;52.354;20.884;2022-10-31T09:09:31;13.90;99.90
19263;DHT22;9765;52.354;20.884;2022-10-31T09:11:57;13.30;99.90
19263;DHT22;9765;52.354;20.884;2022-10-31T09:14:24;13.70;99.90
19263;DHT22;9765;52.354;20.884;2022-10-31T09:16:52;13.90;99.90
19263;DHT22;9765;52.354;20.884;2022-10-31T09:19:18;13.90;99.90
19263;DHT22;9765;52.354;20.884;2022-10-31T09:21:45;14.00;99.90
19263;DHT22;9765;52.354;20.884;2022-10-31T09:24:13;14.00;99.90
19263;DHT22;9765;52.354;20.884;2022-10-31T09:26:40;14.00;99.90
19263;DHT22;9765;52.354;20.884;2022-10-31T09:29:07;14.10;99.90
19263;DHT22;9765;52.354;20.884;2022-10-31T09:31:35;14.00;99.90
19263;DHT22;9765;52.354;20.884;2022-10-31T09:34:01;14.00;99.90
19263;DHT22;9765;52.354;20.884;2022-10-31T09:36:28;14.10;99.90
19263;DHT22;9765;52.354;20.884;2022-10-31T09:38:55;14.30;99.90
19263;DHT22;9765;52.354;20.884;2022-10-31T09:41:27;14.40;99.90
19263;DHT22;9765;52.354;20.884;2022-10-31T09:44:02;14.50;99.90
19263;DHT22;9765;52.354;20.884;2022-10-31T09:46:36;14.40;99.90
19263;DHT22;9765;52.354;20.884;2022-10-31T09:49:33;14.50;99.90
19263;DHT22;9765;52.354;20.884;2022-10-31T09:52:04;14.60;99.90
19263;DHT22;9765;52.354;20.884;2022-10-31T09:54:35;14.70;99.90
19263;DHT22;9765;52.354;20.884;2022-10-31T09:57:08;14.90;99.90
19263;DHT22;9765;52.354;20.884;2022-10-31T09:59:39;15.00;99.90
19263;DHT22;9765;52.354;20.884;2022-10-31T10:02:14;15.20;99.90
19263;DHT22;9765;52.354;20.884;2022-10-31T10:04:46;15.10;99.90
19263;DHT22;9765;52.354;20.884;2022-10-31T10:07:22;15.30;99.90
19263;DHT22;9765;52.354;20.884;2022-10-31T10:09:52;15.30;99.90
19263;DHT22;9765;52.354;20.884;2022-10-31T10:12:28;15.50;99.90
19263;DHT22;9765;52.354;20.884;2022-10-31T10:18:03;15.60;99.90
19263;DHT22;9765;52.354;20.884;2022-10-31T10:20:37;15.50;99.90
19263;DHT22;9765;52.354;20.884;2022-10-31T10:23:28;15.50;99.90
19263;DHT22;9765;52.354;20.884;2022-10-31T10:26:02;15.60;99.90
19263;DHT22;9765;52.354;20.884;2022-10-31T10:28:37;15.60;99.90
19263;DHT22;9765;52.354;20.884;2022-10-31T10:31:08;15.70;99.90
19263;DHT22;9765;52.354;20.884;2022-10-31T10:33:38;15.90;99.90
19263;DHT22;9765;52.354;20.884;2022-10-31T10:36:10;16.00;99.90
19263;DHT22;9765;52.354;20.884;2022-10-31T10:38:42;16.00;99.90
19263;DHT22;9765;52.354;20.884;2022-10-31T10:41:14;16.20;99.90
19263;DHT22;9765;52.354;20.884;2022-10-31T10:43:44;16.20;99.90
19263;DHT22;9765;52.354;20.884;2022-10-31T10:46:17;16.00;99.90
19263;DHT22;9765;52.354;20.884;2022-10-31T10:49:10;16.00;99.90
19263;DHT22;9765;52.354;20.884;2022-10-31T10:51:44;16.10;99.90
19263;DHT22;9765;52.354;20.884;2022-10-31T10:54:31;16.20;99.90
19263;DHT22;9765;52.354;20.884;2022-10-31T10:57:05;16.00;99.90
19263;DHT22;9765;52.354;20.884;2022-10-31T10:59:36;16.20;99.90
19263;DHT22;9765;52.354;20.884;2022-10-31T11:02:08;16.10;99.90
19263;DHT22;9765;52.354;20.884;2022-10-31T11:04:45;16.30;99.90
19263;DHT22;9765;52.354;20.884;2022-10-31T11:07:14;16.30;99.90
19263;DHT22;9765;52.354;20.884;2022-10-31T11:09:40;16.40;99.90
19263;DHT22;9765;52.354;20.884;2022-10-31T11:12:08;16.30;99.90
19263;DHT22;9765;52.354;20.884;2022-10-31T11:14:44;16.30;99.90
19263;DHT22;9765;52.354;20.884;2022-10-31T11:17:20;16.20;99.90
19263;DHT22;9765;52.354;20.884;2022-10-31T11:20:16;16.30;99.90
19263;DHT22;9765;52.354;20.884;2022-10-31T11:22:48;16.40;99.90
19263;DHT22;9765;52.354;20.884;2022-10-31T11:25:20;16.50;99.90
19263;DHT22;9765;52.354;20.884;2022-10-31T11:27:58;16.40;99.90
19263;DHT22;9765;52.354;20.884;2022-10-31T11:30:26;16.40;99.90
19263;DHT22;9765;52.354;20.884;2022-10-31T11:32:53;16.40;99.90
19263;DHT22;9765;52.354;20.884;2022-10-31T11:35:22;16.40;99.90
19263;DHT22;9765;52.354;20.884;2022-10-31T11:37:52;16.30;99.90
19263;DHT22;9765;52.354;20.884;2022-10-31T11:40:20;16.40;99.90
19263;DHT22;9765;52.354;20.884;2022-10-31T11:42:49;16.30;99.90
19263;DHT22;9765;52.354;20.884;2022-10-31T11:45:26;16.30;99.90
19263;DHT22;9765;52.354;20.884;2022-10-31T11:47:56;16.40;99.90
19263;DHT22;9765;52.354;20.884;2022-10-31T11:50:25;16.40;99.90
19263;DHT22;9765;52.354;20.884;2022-10-31T11:52:53;16.40;99.90
19263;DHT22;9765;52.354;20.884;2022-10-31T11:55:31;16.40;99.90
19263;DHT22;9765;52.354;20.884;2022-10-31T11:57:58;16.50;99.90
19263;DHT22;9765;52.354;20.884;2022-10-31T12:00:28;16.40;99.90
19263;DHT22;9765;52.354;20.884;2022-10-31T12:03:11;16.40;99.90
19263;DHT22;9765;52.354;20.884;2022-10-31T12:05:41;16.50;99.90
19263;DHT22;9765;52.354;20.884;2022-10-31T12:08:12;16.50;99.90
19263;DHT22;9765;52.354;20.884;2022-10-31T12:10:58;16.50;99.90
19263;DHT22;9765;52.354;20.884;2022-10-31T12:13:33;16.50;99.90
19263;DHT22;9765;52.354;20.884;2022-10-31T12:16:06;16.50;99.90
19263;DHT22;9765;52.354;20.884;2022-10-31T12:18:50;16.50;99.90
19263;DHT22;9765;52.354;20.884;2022-10-31T12:21:27;16.40;99.90
19263;DHT22;9765;52.354;20.884;2022-10-31T12:24:08;16.40;99.90
19263;DHT22;9765;52.354;20.884;2022-10-31T12:26:45;16.30;99.90
19263;DHT22;9765;52.354;20.884;2022-10-31T12:29:24;16.30;99.90
19263;DHT22;9765;52.354;20.884;2022-10-31T12:32:10;16.30;99.90
19263;DHT22;9765;52.354;20.884;2022-10-31T12:34:52;16.30;99.90
19263;DHT22;9765;52.354;20.884;2022-10-31T12:37:31;16.30;99.90
19263;DHT22;9765;52.354;20.884;2022-10-31T12:40:11;16.30;99.90
19263;DHT22;9765;52.354;20.884;2022-10-31T12:42:50;16.30;99.90
19263;DHT22;9765;52.354;20.884;2022-10-31T12:45:39;16.30;99.90
19263;DHT22;9765;52.354;20.884;2022-10-31T12:48:26;16.20;99.90
19263;DHT22;9765;52.354;20.884;2022-10-31T12:51:02;16.30;99.90
19263;DHT22;9765;52.354;20.884;2022-10-31T12:53:42;16.30;99.90
19263;DHT22;9765;52.354;20.884;2022-10-31T12:56:25;16.20;99.90
19263;DHT22;9765;52.354;20.884;2022-10-31T12:59:00;16.30;99.90
19263;DHT22;9765;52.354;20.884;2022-10-31T13:01:32;16.40;99.90
19263;DHT22;9765;52.354;20.884;2022-10-31T13:04:03;16.20;99.90
19263;DHT22;9765;52.354;20.884;2022-10-31T13:06:35;16.20;99.90
19263;DHT22;9765;52.354;20.884;2022-10-31T13:09:06;16.20;99.90
19263;DHT22;9765;52.354;20.884;2022-10-31T13:11:36;16.20;99.90
19263;DHT22;9765;52.354;20.884;2022-10-31T13:14:07;16.20;99.90
19263;DHT22;9765;52.354;20.884;2022-10-31T13:16:36;16.20;99.90
19263;DHT22;9765;52.354;20.884;2022-10-31T13:19:10;16.30;99.90
19263;DHT22;9765;52.354;20.884;2022-10-31T13:21:51;16.30;99.90
19263;DHT22;9765;52.354;20.884;2022-10-31T13:24:22;16.20;99.90
19263;DHT22;9765;52.354;20.884;2022-10-31T13:26:52;16.20;99.90
19263;DHT22;9765;52.354;20.884;2022-10-31T13:29:23;16.20;99.90
19263;DHT22;9765;52.354;20.884;2022-10-31T13:31:52;16.90;99.90
19263;DHT22;9765;52.354;20.884;2022-10-31T13:34:25;16.30;99.90
19263;DHT22;9765;52.354;20.884;2022-10-31T13:37:14;16.10;99.90
19263;DHT22;9765;52.354;20.884;2022-10-31T13:39:58;16.10;99.90
19263;DHT22;9765;52.354;20.884;2022-10-31T13:42:41;16.00;99.90
19263;DHT22;9765;52.354;20.884;2022-10-31T13:45:14;16.00;99.90
19263;DHT22;9765;52.354;20.884;2022-10-31T13:47:41;16.00;99.90
19263;DHT22;9765;52.354;20.884;2022-10-31T13:50:20;15.90;99.90
19263;DHT22;9765;52.354;20.884;2022-10-31T13:52:48;15.90;99.90
19263;DHT22;9765;52.354;20.884;2022-10-31T13:55:43;15.90;99.90
19263;DHT22;9765;52.354;20.884;2022-10-31T13:58:22;15.90;99.90
19263;DHT22;9765;52.354;20.884;2022-10-31T14:01:05;15.90;99.90
19263;DHT22;9765;52.354;20.884;2022-10-31T14:03:40;15.90;99.90
19263;DHT22;9765;52.354;20.884;2022-10-31T14:06:08;15.90;99.90
19263;DHT22;9765;52.354;20.884;2022-10-31T14:08:40;15.90;99.90
19263;DHT22;9765;52.354;20.884;2022-10-31T14:11:08;15.80;99.90
19263;DHT22;9765;52.354;20.884;2022-10-31T14:13:37;15.90;99.90
19263;DHT22;9765;52.354;20.884;2022-10-31T14:16:19;15.80;99.90
19263;DHT22;9765;52.354;20.884;2022-10-31T14:18:50;15.60;99.90
19263;DHT22;9765;52.354;20.884;2022-10-31T14:21:27;15.60;99.90
19263;DHT22;9765;52.354;20.884;2022-10-31T14:23:58;15.40;99.90
19263;DHT22;9765;52.354;20.884;2022-10-31T14:26:33;15.30;99.90
19263;DHT22;9765;52.354;20.884;2022-10-31T14:29:22;15.20;99.90
19263;DHT22;9765;52.354;20.884;2022-10-31T14:31:58;15.10;99.90
19263;DHT22;9765;52.354;20.884;2022-10-31T14:34:28;15.00;99.90
19263;DHT22;9765;52.354;20.884;2022-10-31T14:37:08;14.90;99.90
19263;DHT22;9765;52.354;20.884;2022-10-31T14:39:49;14.80;99.90
19263;DHT22;9765;52.354;20.884;2022-10-31T14:42:32;14.70;99.90
19263;DHT22;9765;52.354;20.884;2022-10-31T14:45:25;14.60;99.90
